KNE627 GMMN-GMTT
Flight info
| Callsign | KNE627 |
|---|---|
| Flight time | 0h 30m |
| Altitude | 20000 |
| Route | TOLSI UG5 ROMSO G5 VAGNO |
| Aircraft | A320/M-SDE3FGHIRWY/LB1 |
Departure
| Time | 2026-04-21 00:02 |
|---|---|
| Airport | Mohammed V International Airport (GMMN) |
Arrival
| Time | 2026-04-21 00:33 |
|---|---|
| Airport | Tangier Ibn Battuta Airport (GMTT) |
| Time | Latitude | Longitude | Altitude | Speed | Heading |
|---|---|---|---|---|---|
| 2026-04-20 23:35 | 33.37243 | -7.58214 | 653 ft | 0 kts | 62° |
| 2026-04-20 23:50 | 33.37237 | -7.58220 | 652 ft | 3 kts | 121° |
| 2026-04-20 23:51 | 33.37243 | -7.58229 | 655 ft | 3 kts | 101° |
| 2026-04-20 23:51 | 33.37245 | -7.58251 | 652 ft | 3 kts | 78° |
| 2026-04-20 23:51 | 33.37238 | -7.58272 | 656 ft | 3 kts | 44° |
| 2026-04-20 23:51 | 33.37224 | -7.58285 | 656 ft | 1 kts | 28° |
| 2026-04-20 23:52 | 33.37222 | -7.58286 | 654 ft | 0 kts | 28° |
| 2026-04-20 23:56 | 33.37231 | -7.58291 | 654 ft | 2 kts | 329° |
| 2026-04-20 23:56 | 33.37275 | -7.58322 | 652 ft | 16 kts | 330° |
| 2026-04-20 23:57 | 33.37329 | -7.58348 | 654 ft | 10 kts | 345° |
| 2026-04-20 23:57 | 33.37381 | -7.58364 | 651 ft | 9 kts | 345° |
| 2026-04-20 23:58 | 33.37435 | -7.58381 | 651 ft | 7 kts | 345° |
| 2026-04-20 23:58 | 33.37480 | -7.58399 | 652 ft | 6 kts | 340° |
| 2026-04-20 23:58 | 33.37543 | -7.58424 | 650 ft | 10 kts | 345° |
| 2026-04-20 23:58 | 33.37610 | -7.58441 | 650 ft | 9 kts | 356° |
| 2026-04-20 23:59 | 33.37668 | -7.58444 | 650 ft | 8 kts | 357° |
| 2026-04-20 23:59 | 33.37735 | -7.58462 | 649 ft | 16 kts | 338° |
| 2026-04-20 23:59 | 33.37853 | -7.58573 | 648 ft | 25 kts | 299° |
| 2026-04-20 23:59 | 33.37895 | -7.58755 | 648 ft | 22 kts | 265° |
| 2026-04-21 00:00 | 33.37855 | -7.58930 | 647 ft | 20 kts | 256° |
| 2026-04-21 00:00 | 33.37849 | -7.58956 | 647 ft | 0 kts | 255° |
| 2026-04-21 00:00 | 33.37844 | -7.58978 | 647 ft | 10 kts | 255° |
| 2026-04-21 00:00 | 33.37823 | -7.59064 | 646 ft | 10 kts | 253° |
| 2026-04-21 00:01 | 33.37801 | -7.59138 | 647 ft | 8 kts | 229° |
| 2026-04-21 00:01 | 33.37773 | -7.59136 | 646 ft | 0 kts | 162° |
| 2026-04-21 00:01 | 33.37757 | -7.59130 | 646 ft | 15 kts | 162° |
| 2026-04-21 00:01 | 33.37401 | -7.59009 | 649 ft | 90 kts | 163° |
| 2026-04-21 00:02 | 33.36580 | -7.58725 | 658 ft | 152 kts | 164° |
| 2026-04-21 00:02 | 33.35476 | -7.58334 | 1088 ft | 165 kts | 162° |
| 2026-04-21 00:02 | 33.34382 | -7.57942 | 1914 ft | 165 kts | 159° |
| 2026-04-21 00:02 | 33.33335 | -7.57378 | 2509 ft | 167 kts | 135° |
| 2026-04-21 00:03 | 33.32713 | -7.56188 | 2773 ft | 179 kts | 102° |
| 2026-04-21 00:03 | 33.32778 | -7.54644 | 2977 ft | 197 kts | 76° |
| 2026-04-21 00:03 | 33.33165 | -7.52976 | 3169 ft | 221 kts | 76° |
| 2026-04-21 00:03 | 33.33571 | -7.51122 | 3598 ft | 235 kts | 77° |
| 2026-04-21 00:04 | 33.33986 | -7.49209 | 4244 ft | 240 kts | 75° |
| 2026-04-21 00:04 | 33.34768 | -7.47436 | 4889 ft | 248 kts | 44° |
| 2026-04-21 00:04 | 33.36307 | -7.46484 | 5513 ft | 257 kts | 15° |
| 2026-04-21 00:04 | 33.38070 | -7.46037 | 6209 ft | 261 kts | 12° |
| 2026-04-21 00:05 | 33.39895 | -7.45648 | 6676 ft | 276 kts | 11° |
| 2026-04-21 00:05 | 33.41835 | -7.45254 | 7152 ft | 288 kts | 11° |
| 2026-04-21 00:05 | 33.43854 | -7.44841 | 7790 ft | 294 kts | 11° |
| 2026-04-21 00:05 | 33.45887 | -7.44413 | 8470 ft | 299 kts | 11° |
| 2026-04-21 00:06 | 33.47950 | -7.43966 | 9127 ft | 304 kts | 11° |
| 2026-04-21 00:06 | 33.50044 | -7.43502 | 9782 ft | 309 kts | 11° |
| 2026-04-21 00:06 | 33.52199 | -7.43020 | 10137 ft | 325 kts | 10° |
| 2026-04-21 00:06 | 33.54502 | -7.42505 | 10292 ft | 348 kts | 10° |
| 2026-04-21 00:07 | 33.56957 | -7.41959 | 10465 ft | 369 kts | 9° |
| 2026-04-21 00:07 | 33.59520 | -7.41427 | 10951 ft | 377 kts | 9° |
| 2026-04-21 00:07 | 33.62120 | -7.40883 | 11557 ft | 382 kts | 13° |
| 2026-04-21 00:07 | 33.64669 | -7.39938 | 12182 ft | 386 kts | 17° |
| 2026-04-21 00:08 | 33.67231 | -7.38928 | 12787 ft | 390 kts | 17° |
| 2026-04-21 00:08 | 33.69817 | -7.37896 | 13391 ft | 393 kts | 17° |
| 2026-04-21 00:08 | 33.71544 | -7.37203 | 13778 ft | 396 kts | 17° |
| 2026-04-21 00:08 | 33.74164 | -7.36149 | 14309 ft | 399 kts | 17° |
| 2026-04-21 00:09 | 33.77710 | -7.34729 | 15012 ft | 403 kts | 17° |
| 2026-04-21 00:09 | 33.79479 | -7.34021 | 15366 ft | 405 kts | 17° |
| 2026-04-21 00:09 | 33.83077 | -7.32582 | 16081 ft | 409 kts | 17° |
| 2026-04-21 00:09 | 33.84868 | -7.31866 | 16432 ft | 411 kts | 17° |
| 2026-04-21 00:10 | 33.87594 | -7.30777 | 16949 ft | 414 kts | 17° |
| 2026-04-21 00:10 | 33.90373 | -7.29666 | 17478 ft | 417 kts | 17° |
| 2026-04-21 00:10 | 33.93141 | -7.28558 | 17989 ft | 421 kts | 16° |
| 2026-04-21 00:10 | 33.95926 | -7.27440 | 18441 ft | 424 kts | 16° |
| 2026-04-21 00:11 | 33.98731 | -7.26315 | 18883 ft | 426 kts | 16° |
| 2026-04-21 00:11 | 34.01555 | -7.25183 | 19329 ft | 429 kts | 16° |
| 2026-04-21 00:11 | 34.04403 | -7.24039 | 19690 ft | 432 kts | 16° |
| 2026-04-21 00:11 | 34.07257 | -7.22888 | 19789 ft | 437 kts | 16° |
| 2026-04-21 00:12 | 34.10166 | -7.21712 | 19809 ft | 447 kts | 17° |
| 2026-04-21 00:12 | 34.13164 | -7.20504 | 19806 ft | 460 kts | 16° |
| 2026-04-21 00:12 | 34.16234 | -7.19270 | 19801 ft | 471 kts | 16° |
| 2026-04-21 00:12 | 34.19382 | -7.18006 | 19803 ft | 481 kts | 16° |
| 2026-04-21 00:13 | 34.22575 | -7.16724 | 19802 ft | 487 kts | 16° |
| 2026-04-21 00:13 | 34.25799 | -7.15425 | 19802 ft | 489 kts | 17° |
| 2026-04-21 00:13 | 34.29024 | -7.14120 | 19802 ft | 489 kts | 17° |
| 2026-04-21 00:13 | 34.32253 | -7.12809 | 19804 ft | 490 kts | 17° |
| 2026-04-21 00:14 | 34.35484 | -7.11494 | 19804 ft | 490 kts | 17° |
| 2026-04-21 00:14 | 34.38709 | -7.10181 | 19801 ft | 490 kts | 17° |
| 2026-04-21 00:14 | 34.41940 | -7.08870 | 19803 ft | 490 kts | 17° |
| 2026-04-21 00:14 | 34.45172 | -7.07559 | 19804 ft | 489 kts | 17° |
| 2026-04-21 00:15 | 34.48399 | -7.06250 | 19802 ft | 489 kts | 16° |
| 2026-04-21 00:15 | 34.51627 | -7.04939 | 19804 ft | 489 kts | 17° |
| 2026-04-21 00:15 | 34.54852 | -7.03625 | 19803 ft | 489 kts | 17° |
| 2026-04-21 00:15 | 34.58082 | -7.02309 | 19806 ft | 489 kts | 17° |
| 2026-04-21 00:16 | 34.61241 | -7.00782 | 19802 ft | 491 kts | 25° |
| 2026-04-21 00:16 | 34.64288 | -6.98916 | 19809 ft | 491 kts | 25° |
| 2026-04-21 00:16 | 34.67332 | -6.97046 | 19803 ft | 491 kts | 25° |
| 2026-04-21 00:16 | 34.70379 | -6.95171 | 19810 ft | 490 kts | 25° |
| 2026-04-21 00:17 | 34.73425 | -6.93300 | 19810 ft | 490 kts | 25° |
| 2026-04-21 00:17 | 34.76469 | -6.91432 | 19809 ft | 490 kts | 25° |
| 2026-04-21 00:17 | 34.79553 | -6.89541 | 19809 ft | 490 kts | 25° |
| 2026-04-21 00:17 | 34.82595 | -6.87676 | 19808 ft | 490 kts | 25° |
| 2026-04-21 00:18 | 34.85630 | -6.85812 | 19797 ft | 480 kts | 25° |
| 2026-04-21 00:18 | 34.88544 | -6.84017 | 19803 ft | 459 kts | 25° |
| 2026-04-21 00:18 | 34.91345 | -6.82289 | 19800 ft | 447 kts | 25° |
| 2026-04-21 00:18 | 34.94109 | -6.80583 | 19806 ft | 444 kts | 25° |
| 2026-04-21 00:19 | 34.96837 | -6.78899 | 19621 ft | 435 kts | 25° |
| 2026-04-21 00:19 | 34.99507 | -6.77246 | 19357 ft | 425 kts | 25° |
| 2026-04-21 00:19 | 35.02132 | -6.75623 | 18879 ft | 423 kts | 25° |
| 2026-04-21 00:19 | 35.04750 | -6.74008 | 18384 ft | 421 kts | 25° |
| 2026-04-21 00:20 | 35.07364 | -6.72392 | 17838 ft | 420 kts | 25° |
| 2026-04-21 00:20 | 35.09959 | -6.70782 | 17317 ft | 417 kts | 25° |
| 2026-04-21 00:20 | 35.12535 | -6.69182 | 16801 ft | 414 kts | 25° |
| 2026-04-21 00:20 | 35.15096 | -6.67591 | 16292 ft | 412 kts | 25° |
| 2026-04-21 00:21 | 35.17645 | -6.66006 | 15760 ft | 410 kts | 25° |
| 2026-04-21 00:21 | 35.20185 | -6.64429 | 15245 ft | 408 kts | 25° |
| 2026-04-21 00:21 | 35.22715 | -6.62860 | 14726 ft | 407 kts | 25° |
| 2026-04-21 00:21 | 35.25239 | -6.61295 | 14203 ft | 405 kts | 26° |
| 2026-04-21 00:22 | 35.27745 | -6.59736 | 13689 ft | 404 kts | 26° |
| 2026-04-21 00:22 | 35.30235 | -6.58182 | 13151 ft | 401 kts | 26° |
| 2026-04-21 00:22 | 35.32704 | -6.56643 | 12713 ft | 395 kts | 26° |
| 2026-04-21 00:22 | 35.35162 | -6.55112 | 12163 ft | 393 kts | 26° |
| 2026-04-21 00:23 | 35.37572 | -6.53609 | 11539 ft | 385 kts | 26° |
| 2026-04-21 00:23 | 35.39912 | -6.52143 | 10987 ft | 371 kts | 27° |
| 2026-04-21 00:23 | 35.42164 | -6.50730 | 10489 ft | 358 kts | 27° |
| 2026-04-21 00:23 | 35.44341 | -6.49367 | 10336 ft | 346 kts | 27° |
| 2026-04-21 00:24 | 35.46430 | -6.48044 | 10213 ft | 327 kts | 28° |
| 2026-04-21 00:24 | 35.48385 | -6.46778 | 9917 ft | 312 kts | 28° |
| 2026-04-21 00:24 | 35.50278 | -6.45537 | 9592 ft | 304 kts | 28° |
| 2026-04-21 00:24 | 35.52152 | -6.44308 | 9471 ft | 306 kts | 28° |
| 2026-04-21 00:25 | 35.54022 | -6.43081 | 9319 ft | 305 kts | 28° |
| 2026-04-21 00:25 | 35.55922 | -6.41833 | 8879 ft | 306 kts | 28° |
| 2026-04-21 00:25 | 35.57801 | -6.40598 | 8490 ft | 305 kts | 28° |
| 2026-04-21 00:25 | 35.59661 | -6.39379 | 8086 ft | 303 kts | 28° |
| 2026-04-21 00:26 | 35.61502 | -6.38178 | 7575 ft | 297 kts | 28° |
| 2026-04-21 00:26 | 35.63317 | -6.36998 | 7060 ft | 293 kts | 28° |
| 2026-04-21 00:26 | 35.65104 | -6.35833 | 6597 ft | 289 kts | 28° |
| 2026-04-21 00:26 | 35.66870 | -6.34679 | 6151 ft | 286 kts | 28° |
| 2026-04-21 00:27 | 35.68615 | -6.33534 | 5708 ft | 283 kts | 28° |
| 2026-04-21 00:27 | 35.70352 | -6.32393 | 5256 ft | 283 kts | 29° |
| 2026-04-21 00:27 | 35.72016 | -6.31109 | 4832 ft | 282 kts | 43° |
| 2026-04-21 00:27 | 35.73238 | -6.29268 | 4435 ft | 277 kts | 63° |
| 2026-04-21 00:28 | 35.73873 | -6.27061 | 4064 ft | 271 kts | 83° |
| 2026-04-21 00:28 | 35.73949 | -6.24763 | 3709 ft | 268 kts | 92° |
| 2026-04-21 00:28 | 35.73923 | -6.22476 | 3307 ft | 267 kts | 92° |
| 2026-04-21 00:28 | 35.73898 | -6.20195 | 2893 ft | 266 kts | 92° |
| 2026-04-21 00:29 | 35.73873 | -6.17972 | 2778 ft | 252 kts | 92° |
| 2026-04-21 00:29 | 35.73849 | -6.15881 | 2702 ft | 238 kts | 92° |
| 2026-04-21 00:29 | 35.73826 | -6.13904 | 2603 ft | 225 kts | 92° |
| 2026-04-21 00:29 | 35.73804 | -6.12047 | 2496 ft | 211 kts | 92° |
| 2026-04-21 00:30 | 35.73781 | -6.10229 | 2434 ft | 223 kts | 92° |
| 2026-04-21 00:30 | 35.73757 | -6.08320 | 2389 ft | 214 kts | 92° |
| 2026-04-21 00:30 | 35.73731 | -6.06584 | 2201 ft | 197 kts | 93° |
| 2026-04-21 00:30 | 35.73700 | -6.04940 | 1820 ft | 185 kts | 93° |
| 2026-04-21 00:31 | 35.73666 | -6.03299 | 1600 ft | 193 kts | 93° |
| 2026-04-21 00:31 | 35.73634 | -6.01731 | 1347 ft | 174 kts | 92° |
| 2026-04-21 00:31 | 35.73606 | -6.00327 | 1106 ft | 154 kts | 93° |
| 2026-04-21 00:31 | 35.73581 | -5.99041 | 884 ft | 148 kts | 92° |
| 2026-04-21 00:32 | 35.73555 | -5.97795 | 678 ft | 143 kts | 89° |
| 2026-04-21 00:32 | 35.73559 | -5.96587 | 480 ft | 142 kts | 91° |
| 2026-04-21 00:32 | 35.73456 | -5.95373 | 261 ft | 143 kts | 96° |
| 2026-04-21 00:32 | 35.73354 | -5.94177 | 88 ft | 140 kts | 96° |
| 2026-04-21 00:33 | 35.73249 | -5.93023 | 42 ft | 120 kts | 96° |
| 2026-04-21 00:33 | 35.73191 | -5.92373 | 51 ft | 33 kts | 96° |
| 2026-04-21 00:33 | 35.73184 | -5.92296 | 52 ft | 8 kts | 97° |
| 2026-04-21 00:33 | 35.73172 | -5.92176 | 53 ft | 20 kts | 97° |